Time;durP1;ratioP1;P1;durP2;ratioP2;P2;SDS_P1;SDS_P2;PMS_P1;PMS_P2;Temp;Humidity;BMP_temperature;BMP_pressure;BME280_temperature;BME280_humidity;BME280_pressure;Samples;Min_cycle;Max_cycle;Signal;HPM_P1;HPM_P2
2022/10/07 00:01:43;;;;;;;10.70;4.55;;;9.10;99.90;;;;;;5099498;28;20138;-69
2022/10/07 00:04:09;;;;;;;21.75;10.82;;;9.10;99.90;;;;;;5071747;28;20139;-69
2022/10/07 00:06:35;;;;;;;18.15;9.90;;;9.10;99.90;;;;;;5099314;28;20047;-69
2022/10/07 00:09:01;;;;;;;21.48;10.80;;;9.20;99.90;;;;;;5104418;28;20036;-69
2022/10/07 00:11:27;;;;;;;19.88;11.85;;;9.20;99.90;;;;;;5104453;28;20544;-69
2022/10/07 00:13:58;;;;;;;29.98;12.15;;;9.10;99.90;;;;;;5078270;28;20105;-69
2022/10/07 00:16:30;;;;;;;11.20;6.53;;;9.20;99.90;;;;;;5103509;28;20074;-69
2022/10/07 00:18:59;;;;;;;10.75;7.50;;;9.20;99.90;;;;;;5107070;28;20408;-69
2022/10/07 00:21:27;;;;;;;16.58;10.05;;;9.10;99.90;;;;;;5106151;28;20096;-69
2022/10/07 00:23:53;;;;;;;29.60;11.65;;;9.10;99.90;;;;;;5103421;28;20086;-69
2022/10/07 00:26:21;;;;;;;18.40;10.48;;;9.10;99.90;;;;;;5106694;28;20094;-69
2022/10/07 00:28:47;;;;;;;23.48;10.23;;;9.20;99.90;;;;;;5102987;28;20048;-69
2022/10/07 00:31:16;;;;;;;27.88;11.55;;;9.10;99.90;;;;;;5104075;28;20047;-69
2022/10/07 00:33:42;;;;;;;20.80;5.75;;;9.20;99.90;;;;;;5102005;28;20052;-69
2022/10/07 00:36:14;;;;;;;18.83;10.63;;;9.10;99.90;;;;;;5106871;28;20054;-69
2022/10/07 00:38:40;;;;;;;23.15;11.15;;;9.10;99.90;;;;;;5095250;28;20043;-69
2022/10/07 00:41:08;;;;;;;11.45;5.63;;;9.10;99.90;;;;;;5109633;28;20048;-69
2022/10/07 00:43:34;;;;;;;8.43;3.97;;;9.20;99.90;;;;;;5101356;28;20051;-69
2022/10/07 00:46:15;;;;;;;33.47;13.60;;;9.10;99.90;;;;;;5106707;28;20074;-69
2022/10/07 00:48:43;;;;;;;50.55;10.05;;;9.10;99.90;;;;;;5107793;28;20048;-69
2022/10/07 00:51:09;;;;;;;28.45;10.77;;;9.10;99.90;;;;;;5099366;28;20055;-69
2022/10/07 00:53:38;;;;;;;24.85;12.27;;;9.10;99.90;;;;;;5100890;28;20131;-69
2022/10/07 00:56:06;;;;;;;26.80;11.02;;;9.10;99.90;;;;;;5078931;28;20138;-70
2022/10/07 00:58:35;;;;;;;24.77;11.95;;;9.10;99.90;;;;;;5107086;28;20048;-69
2022/10/07 01:01:01;;;;;;;28.52;12.02;;;9.20;99.90;;;;;;5102280;28;20057;-69
2022/10/07 01:03:28;;;;;;;37.30;11.43;;;9.10;99.90;;;;;;5110237;28;20048;-68
2022/10/07 01:05:53;;;;;;;20.13;10.85;;;9.10;99.90;;;;;;5109318;28;20075;-69
2022/10/07 01:08:21;;;;;;;12.57;5.22;;;9.20;99.90;;;;;;5102077;28;20123;-69
2022/10/07 01:10:52;;;;;;;8.60;4.13;;;9.10;99.90;;;;;;5109514;28;20044;-69
2022/10/07 01:13:54;;;;;;;21.05;11.25;;;9.00;99.90;;;;;;5101191;28;20083;-68
2022/10/07 01:17:05;;;;;;;18.92;11.40;;;9.10;99.90;;;;;;5102510;28;20059;-69
2022/10/07 01:19:30;;;;;;;27.77;12.80;;;9.10;99.90;;;;;;5082739;28;20051;-69
2022/10/07 01:22:02;;;;;;;26.27;11.90;;;9.10;99.90;;;;;;5107607;28;20060;-69
2022/10/07 01:24:42;;;;;;;27.80;11.50;;;9.10;99.90;;;;;;5099013;28;20437;-68
2022/10/07 01:27:15;;;;;;;17.92;12.70;;;9.10;99.90;;;;;;5101042;28;20439;-69
2022/10/07 01:29:54;;;;;;;25.80;12.68;;;9.10;99.90;;;;;;5091776;28;20054;-69
2022/10/07 01:32:31;;;;;;;10.93;5.93;;;9.00;99.90;;;;;;5089189;28;20083;-69
2022/10/07 01:34:58;;;;;;;23.23;11.77;;;9.00;99.90;;;;;;5108293;28;20040;-69
2022/10/07 01:37:27;;;;;;;23.25;12.13;;;9.30;99.90;;;;;;5108917;28;20544;-69
2022/10/07 01:39:57;;;;;;;18.13;5.18;;;8.90;99.90;;;;;;5101844;28;20062;-69
2022/10/07 01:42:25;;;;;;;6.40;3.78;;;8.90;99.90;;;;;;5082849;28;20408;-68
2022/10/07 01:44:54;;;;;;;12.82;4.68;;;8.90;99.90;;;;;;5094086;28;20101;-69
2022/10/07 01:47:20;;;;;;;19.80;10.50;;;8.80;99.90;;;;;;5097922;28;20055;-68
2022/10/07 01:49:45;;;;;;;12.27;4.40;;;8.80;99.90;;;;;;5105744;28;20047;-69
2022/10/07 01:52:36;;;;;;;25.73;12.18;;;8.80;99.90;;;;;;5104951;28;20670;-68
2022/10/07 01:55:10;;;;;;;22.83;11.32;;;8.80;99.90;;;;;;5101386;28;20051;-68
2022/10/07 01:57:52;;;;;;;36.95;12.45;;;8.80;99.90;;;;;;5106797;28;20128;-69
2022/10/07 02:00:18;;;;;;;8.43;5.70;;;8.80;99.90;;;;;;5105908;28;20496;-69
2022/10/07 02:03:09;;;;;;;32.80;12.75;;;8.80;99.90;;;;;;5091424;28;20055;-68
2022/10/07 02:05:48;;;;;;;25.00;11.18;;;8.80;99.90;;;;;;5096886;28;20052;-69
2022/10/07 02:08:24;;;;;;;15.48;10.13;;;8.80;99.90;;;;;;5109182;28;20047;-68
2022/10/07 02:10:53;;;;;;;25.60;4.88;;;8.80;99.90;;;;;;5097862;28;20523;-68
2022/10/07 02:13:34;;;;;;;21.02;6.93;;;8.70;99.90;;;;;;5092336;28;20151;-69
2022/10/07 02:16:16;;;;;;;23.83;10.45;;;8.70;99.90;;;;;;5108539;28;20446;-69
2022/10/07 02:18:47;;;;;;;26.90;10.73;;;8.70;99.90;;;;;;5108897;28;20051;-68
2022/10/07 02:21:14;;;;;;;21.30;10.45;;;8.70;99.90;;;;;;5109342;28;20047;-69
2022/10/07 02:23:42;;;;;;;20.25;10.23;;;8.70;99.90;;;;;;5109644;28;20470;-68
2022/10/07 02:26:11;;;;;;;14.80;6.30;;;8.70;99.90;;;;;;5107857;27;20050;-69
2022/10/07 02:28:40;;;;;;;20.85;11.45;;;8.70;99.90;;;;;;5098945;28;20106;-68
2022/10/07 02:31:07;;;;;;;35.00;11.05;;;8.60;99.90;;;;;;5095033;28;20496;-69
2022/10/07 02:33:34;;;;;;;23.65;11.57;;;8.70;99.90;;;;;;5104718;28;20052;-69
2022/10/07 02:36:23;;;;;;;14.77;4.45;;;8.70;99.90;;;;;;5108318;28;20114;-69
2022/10/07 02:38:48;;;;;;;33.35;10.18;;;8.70;99.90;;;;;;5108851;28;20066;-68
2022/10/07 02:41:30;;;;;;;20.60;11.18;;;8.80;99.90;;;;;;5105586;28;20048;-68
2022/10/07 02:44:13;;;;;;;14.07;4.07;;;8.70;99.90;;;;;;5098988;28;20048;-69
2022/10/07 02:46:54;;;;;;;24.08;11.45;;;8.60;99.90;;;;;;5106844;28;20059;-68
2022/10/07 02:49:23;;;;;;;37.70;13.02;;;8.60;99.90;;;;;;5108430;28;20043;-68
2022/10/07 02:51:54;;;;;;;25.00;4.60;;;8.60;99.90;;;;;;5109040;28;20085;-68
2022/10/07 02:54:27;;;;;;;6.97;4.68;;;8.60;99.90;;;;;;5104869;28;20036;-68
2022/10/07 02:56:54;;;;;;;29.17;11.63;;;8.50;99.90;;;;;;5105546;28;20443;-68
2022/10/07 02:59:20;;;;;;;21.35;11.18;;;8.50;99.90;;;;;;5084004;28;20047;-68
2022/10/07 03:01:52;;;;;;;33.45;12.95;;;8.50;99.90;;;;;;5099280;28;20404;-67
2022/10/07 03:04:18;;;;;;;23.67;11.70;;;8.60;99.90;;;;;;5093638;28;20082;-68
2022/10/07 03:06:44;;;;;;;35.47;13.45;;;8.60;99.90;;;;;;5095797;28;20465;-68
2022/10/07 03:09:10;;;;;;;17.27;6.15;;;8.60;99.90;;;;;;5087702;28;20519;-68
2022/10/07 03:11:37;;;;;;;21.33;10.95;;;8.50;99.90;;;;;;5090329;28;20876;-68
2022/10/07 03:14:04;;;;;;;32.10;13.88;;;8.50;99.90;;;;;;5100957;28;20514;-68
2022/10/07 03:16:30;;;;;;;17.88;7.63;;;8.60;99.90;;;;;;5108576;28;20086;-68
2022/10/07 03:18:57;;;;;;;45.70;13.80;;;8.50;99.90;;;;;;5092983;28;20056;-68
2022/10/07 03:21:24;;;;;;;32.70;13.75;;;8.50;99.90;;;;;;5088890;28;20520;-67
2022/10/07 03:23:54;;;;;;;21.08;11.20;;;8.60;99.90;;;;;;5088519;28;20126;-67
2022/10/07 03:26:21;;;;;;;26.05;12.98;;;8.60;99.90;;;;;;5081034;28;20072;-68
2022/10/07 03:28:47;;;;;;;9.80;6.63;;;8.60;99.90;;;;;;5078916;28;20557;-68
2022/10/07 03:31:14;;;;;;;29.35;12.43;;;8.50;99.90;;;;;;5079648;28;20052;-67
2022/10/07 03:33:40;;;;;;;28.17;12.80;;;8.50;99.90;;;;;;5068500;28;20059;-67
2022/10/07 03:36:07;;;;;;;28.42;12.90;;;8.50;99.90;;;;;;5074750;28;20063;-66
2022/10/07 03:38:34;;;;;;;38.10;13.23;;;8.50;99.90;;;;;;5087921;28;20059;-67
2022/10/07 03:41:03;;;;;;;32.53;12.43;;;8.50;99.90;;;;;;5085933;28;20048;-66
2022/10/07 03:43:30;;;;;;;22.65;10.70;;;8.50;99.90;;;;;;5086773;28;20039;-67
2022/10/07 03:45:57;;;;;;;34.47;12.27;;;8.50;99.90;;;;;;5087080;28;20052;-66
2022/10/07 03:48:23;;;;;;;23.98;13.68;;;8.50;99.90;;;;;;5087004;28;20050;-66
2022/10/07 03:50:55;;;;;;;18.40;6.00;;;8.50;99.90;;;;;;5079697;28;20036;-66
2022/10/07 03:53:21;;;;;;;26.85;11.63;;;8.50;99.90;;;;;;5086953;28;20055;-66
2022/10/07 03:55:47;;;;;;;14.45;4.13;;;8.50;99.90;;;;;;5072783;28;20048;-66
2022/10/07 03:58:12;;;;;;;33.90;14.05;;;8.50;99.90;;;;;;5081325;28;20044;-66
2022/10/07 04:00:39;;;;;;;32.05;13.95;;;8.50;99.90;;;;;;5071471;28;20122;-66
2022/10/07 04:03:06;;;;;;;33.22;13.40;;;8.50;99.90;;;;;;5087757;28;20130;-66
2022/10/07 04:05:33;;;;;;;12.75;4.80;;;8.50;99.90;;;;;;5074411;28;20044;-65
2022/10/07 04:07:59;;;;;;;29.02;13.48;;;8.50;99.90;;;;;;5072478;28;20505;-66
2022/10/07 04:10:24;;;;;;;40.85;13.48;;;8.50;99.90;;;;;;5076472;28;20094;-66
2022/10/07 04:12:51;;;;;;;32.00;13.75;;;8.60;99.90;;;;;;5081825;28;20123;-66
2022/10/07 04:15:17;;;;;;;41.15;13.45;;;8.50;99.90;;;;;;5078377;28;20051;-66
2022/10/07 04:17:45;;;;;;;34.88;12.88;;;8.60;99.90;;;;;;5089914;28;20044;-66
2022/10/07 04:20:13;;;;;;;8.43;4.60;;;8.60;99.90;;;;;;5095532;28;20105;-66
2022/10/07 04:22:39;;;;;;;21.48;6.55;;;8.60;99.90;;;;;;5105072;28;20047;-66
2022/10/07 04:27:56;;;;;;;9.82;4.90;;;8.60;99.90;;;;;;5109049;28;20401;-67
2022/10/07 04:30:24;;;;;;;29.00;13.73;;;8.50;99.90;;;;;;5103439;28;20062;-66
2022/10/07 04:32:50;;;;;;;10.40;5.57;;;8.50;99.90;;;;;;5111020;28;20796;-66
2022/10/07 04:35:17;;;;;;;17.20;6.32;;;8.60;99.90;;;;;;5099783;28;20044;-66
2022/10/07 04:37:43;;;;;;;9.70;4.72;;;8.60;99.90;;;;;;5109978;28;20701;-66
2022/10/07 04:40:10;;;;;;;14.65;5.13;;;8.60;99.90;;;;;;5100890;28;20043;-66
2022/10/07 04:45:20;;;;;;;33.25;15.70;;;8.50;99.90;;;;;;5105281;28;20051;-67
2022/10/07 04:47:46;;;;;;;38.65;5.85;;;8.50;99.90;;;;;;5099746;28;20504;-66
2022/10/07 04:50:12;;;;;;;49.85;15.00;;;8.60;99.90;;;;;;5111420;28;20043;-66
2022/10/07 04:52:41;;;;;;;10.93;4.40;;;8.60;99.90;;;;;;5098449;28;20040;-66
2022/10/07 04:55:10;;;;;;;28.65;14.93;;;8.60;99.90;;;;;;5108035;28;20042;-66
2022/10/07 04:57:35;;;;;;;32.75;15.02;;;8.60;99.90;;;;;;5111571;28;20048;-66
2022/10/07 05:00:01;;;;;;;11.98;5.05;;;8.70;99.90;;;;;;5111270;28;20870;-66
2022/10/07 05:02:27;;;;;;;10.35;5.80;;;8.60;99.90;;;;;;5099843;28;20046;-66
2022/10/07 05:04:52;;;;;;;34.25;15.35;;;8.60;99.90;;;;;;5098138;28;20078;-66
2022/10/07 05:07:18;;;;;;;30.48;15.38;;;8.60;99.90;;;;;;5104731;28;20050;-67
2022/10/07 05:09:44;;;;;;;47.25;17.58;;;8.60;99.90;;;;;;5104499;28;20044;-66
2022/10/07 05:12:10;;;;;;;47.70;17.92;;;8.70;99.90;;;;;;5103343;27;20447;-66
2022/10/07 05:14:36;;;;;;;37.35;15.38;;;8.60;99.90;;;;;;5107169;28;20055;-66
2022/10/07 05:17:03;;;;;;;30.17;15.40;;;8.70;99.90;;;;;;5108094;28;20047;-66
2022/10/07 05:19:29;;;;;;;11.27;5.45;;;8.70;99.90;;;;;;5103720;27;20128;-66
2022/10/07 05:21:55;;;;;;;17.65;5.63;;;8.70;99.90;;;;;;5095409;28;20077;-66
2022/10/07 05:24:20;;;;;;;52.30;17.17;;;8.60;99.90;;;;;;5108095;28;20044;-66
2022/10/07 05:26:46;;;;;;;30.98;15.88;;;8.60;99.90;;;;;;5110336;28;20376;-66
2022/10/07 05:29:12;;;;;;;14.35;4.85;;;8.60;99.90;;;;;;5088994;28;20048;-66
2022/10/07 05:31:37;;;;;;;30.02;16.50;;;8.70;99.90;;;;;;5100358;28;20507;-67
2022/10/07 05:34:03;;;;;;;34.60;16.85;;;8.60;99.90;;;;;;5107440;28;20050;-67
2022/10/07 05:36:29;;;;;;;32.03;15.35;;;8.60;99.90;;;;;;5105567;28;20069;-66
2022/10/07 05:38:58;;;;;;;9.15;5.45;;;8.70;99.90;;;;;;5105758;28;20093;-66
2022/10/07 05:41:26;;;;;;;9.68;5.47;;;8.70;99.90;;;;;;5109887;28;20111;-67
2022/10/07 05:43:52;;;;;;;16.15;4.22;;;8.70;99.90;;;;;;5101665;28;20054;-66
2022/10/07 05:46:22;;;;;;;14.82;5.65;;;8.60;99.90;;;;;;5109870;28;20471;-66
2022/10/07 05:48:53;;;;;;;8.32;5.03;;;8.60;99.90;;;;;;5100353;28;20496;-66
2022/10/07 05:51:23;;;;;;;9.77;4.75;;;8.70;99.90;;;;;;5107240;28;20605;-66
2022/10/07 05:53:52;;;;;;;33.13;15.70;;;8.50;99.90;;;;;;5097503;28;20040;-67
2022/10/07 05:56:20;;;;;;;15.73;5.25;;;8.60;99.90;;;;;;5089173;28;20065;-66
2022/10/07 05:58:46;;;;;;;;;;;8.60;99.90;;;;;;5087788;28;20044;-67
2022/10/07 06:01:15;;;;;;;44.28;17.25;;;8.70;99.90;;;;;;5089423;28;19928;-67
2022/10/07 06:03:42;;;;;;;38.03;15.43;;;8.70;99.90;;;;;;5105513;27;20042;-66
2022/10/07 06:06:08;;;;;;;43.47;15.05;;;8.70;99.90;;;;;;5107946;28;20043;-66
2022/10/07 06:08:35;;;;;;;40.67;15.73;;;8.80;99.90;;;;;;5103349;28;20721;-66
2022/10/07 06:13:51;;;;;;;40.80;14.85;;;8.80;99.90;;;;;;5103253;28;20051;-67
2022/10/07 06:16:16;;;;;;;41.15;15.73;;;8.90;99.90;;;;;;5099841;28;20052;-67
2022/10/07 06:18:42;;;;;;;11.43;5.65;;;8.90;99.90;;;;;;5093199;28;20040;-67
2022/10/07 06:21:08;;;;;;;19.02;5.95;;;8.90;99.90;;;;;;5098498;28;20094;-66
2022/10/07 06:23:34;;;;;;;38.10;15.18;;;9.00;99.90;;;;;;5101684;28;20047;-67
2022/10/07 06:26:04;;;;;;;16.67;7.35;;;9.10;99.90;;;;;;5104254;28;20039;-66
2022/10/07 06:28:35;;;;;;;22.00;6.65;;;9.10;99.90;;;;;;5088062;28;20459;-67
2022/10/07 06:31:06;;;;;;;41.72;14.55;;;9.20;99.90;;;;;;5095559;28;20044;-66
2022/10/07 06:33:31;;;;;;;40.97;15.23;;;9.50;99.90;;;;;;5108314;28;20050;-66
2022/10/07 06:36:01;;;;;;;19.27;6.22;;;9.40;99.90;;;;;;5097755;28;20035;-66
2022/10/07 06:38:27;;;;;;;39.72;13.35;;;9.50;99.90;;;;;;5108823;28;20538;-66
2022/10/07 06:41:00;;;;;;;13.57;5.05;;;9.60;99.90;;;;;;5107295;28;20051;-66
2022/10/07 06:43:30;;;;;;;25.67;6.72;;;9.70;99.90;;;;;;5102902;28;20055;-66
2022/10/07 06:46:00;;;;;;;12.98;6.18;;;9.70;99.90;;;;;;5104971;28;20043;-66
2022/10/07 06:48:31;;;;;;;12.45;4.97;;;9.70;99.90;;;;;;5104656;28;20043;-67
2022/10/07 06:51:01;;;;;;;7.72;5.38;;;9.60;99.90;;;;;;5108616;28;20500;-67
2022/10/07 06:53:28;;;;;;;31.65;6.22;;;9.70;99.90;;;;;;5101508;28;20047;-68
2022/10/07 06:55:56;;;;;;;20.00;5.80;;;9.70;99.90;;;;;;5100744;28;20428;-68
2022/10/07 06:58:24;;;;;;;;;;;9.80;99.90;;;;;;5102999;28;20169;-67
2022/10/07 07:00:53;;;;;;;39.92;14.40;;;9.80;99.90;;;;;;5106213;28;20524;-67
2022/10/07 07:03:19;;;;;;;14.23;6.10;;;9.80;99.90;;;;;;5107827;28;20130;-67
2022/10/07 07:05:46;;;;;;;24.05;12.88;;;9.90;99.90;;;;;;5093677;28;20048;-67
2022/10/07 07:08:13;;;;;;;36.88;15.55;;;9.90;99.90;;;;;;5102782;28;20046;-67
2022/10/07 07:10:40;;;;;;;40.78;15.25;;;9.90;99.90;;;;;;5091573;28;20048;-67
2022/10/07 07:13:07;;;;;;;38.40;13.60;;;9.90;99.90;;;;;;5091574;28;20396;-67
2022/10/07 07:15:34;;;;;;;23.92;13.70;;;9.90;99.90;;;;;;5089956;28;20120;-67
2022/10/07 07:18:00;;;;;;;20.52;5.68;;;10.00;99.90;;;;;;5088279;28;20039;-67
2022/10/07 07:20:33;;;;;;;15.30;6.45;;;10.00;99.90;;;;;;5088462;28;20155;-67
2022/10/07 07:23:00;;;;;;;13.02;4.07;;;10.00;99.90;;;;;;5102624;28;20039;-67
2022/10/07 07:25:26;;;;;;;38.88;15.68;;;10.10;99.90;;;;;;5109323;28;20508;-67
2022/10/07 07:27:53;;;;;;;45.78;13.77;;;10.10;99.90;;;;;;5101869;28;20040;-67
2022/10/07 07:30:22;;;;;;;52.72;14.98;;;10.20;99.90;;;;;;5103176;28;20492;-67
2022/10/07 07:32:48;;;;;;;31.67;12.45;;;10.30;99.90;;;;;;5107247;28;20051;-68
2022/10/07 07:35:13;;;;;;;45.28;14.73;;;10.30;99.90;;;;;;5108480;28;20412;-67
2022/10/07 07:37:39;;;;;;;45.90;14.25;;;10.40;99.90;;;;;;5099946;28;20047;-67
2022/10/07 07:40:05;;;;;;;37.60;12.10;;;10.50;99.90;;;;;;5090289;28;20036;-67
2022/10/07 07:42:32;;;;;;;29.70;13.88;;;10.50;99.90;;;;;;5094184;28;20480;-67
2022/10/07 07:44:58;;;;;;;24.42;12.98;;;10.70;99.90;;;;;;5098291;28;20086;-67
2022/10/07 07:47:25;;;;;;;35.00;12.40;;;10.60;99.90;;;;;;5099347;28;20044;-67
2022/10/07 07:49:51;;;;;;;32.35;13.55;;;10.70;99.90;;;;;;5091033;28;20043;-68
2022/10/07 07:52:17;;;;;;;33.28;13.35;;;10.80;99.90;;;;;;5107377;28;20043;-67
2022/10/07 07:54:43;;;;;;;16.95;6.22;;;10.80;99.90;;;;;;5106547;28;20723;-68
2022/10/07 07:57:09;;;;;;;14.38;7.35;;;10.80;99.90;;;;;;5097442;28;20036;-68
2022/10/07 07:59:36;;;;;;;17.52;5.13;;;10.80;99.90;;;;;;5094123;28;20518;-68
2022/10/07 08:02:03;;;;;;;32.80;13.15;;;10.90;99.90;;;;;;5093451;28;20040;-68
2022/10/07 08:04:29;;;;;;;43.17;14.63;;;10.90;99.90;;;;;;5098403;28;20052;-68
2022/10/07 08:06:55;;;;;;;35.92;13.90;;;11.00;99.90;;;;;;5103917;28;20423;-68
2022/10/07 08:09:21;;;;;;;33.92;13.10;;;11.10;99.90;;;;;;5107943;28;20051;-67
2022/10/07 08:11:47;;;;;;;35.83;14.30;;;11.20;99.90;;;;;;5108886;28;20112;-68
2022/10/07 08:14:15;;;;;;;62.50;15.40;;;11.30;99.90;;;;;;5112601;28;20059;-67
2022/10/07 08:16:47;;;;;;;52.50;13.40;;;11.30;99.90;;;;;;5099729;28;20047;-68
2022/10/07 08:19:14;;;;;;;34.28;11.82;;;11.40;99.90;;;;;;5103440;28;20067;-67
2022/10/07 08:21:40;;;;;;;53.97;13.98;;;11.40;99.90;;;;;;5100924;28;20047;-67
2022/10/07 08:24:07;;;;;;;26.33;12.10;;;11.50;99.90;;;;;;5097563;28;20042;-68
2022/10/07 08:26:33;;;;;;;32.50;10.27;;;11.60;99.90;;;;;;5106001;28;20047;-68
2022/10/07 08:29:00;;;;;;;20.63;11.18;;;11.60;99.90;;;;;;5105226;28;20069;-67
2022/10/07 08:31:27;;;;;;;45.92;13.38;;;11.70;99.90;;;;;;5107457;28;20047;-67
2022/10/07 08:33:55;;;;;;;91.15;15.93;;;11.80;99.90;;;;;;5108678;28;20508;-67
2022/10/07 08:36:23;;;;;;;40.88;11.32;;;11.90;99.90;;;;;;5107183;28;20071;-67
2022/10/07 08:38:49;;;;;;;28.80;10.32;;;11.90;99.90;;;;;;5108196;28;20046;-67
2022/10/07 08:41:33;;;;;;;26.85;9.82;;;12.50;99.90;;;;;;5092619;28;20044;-68
2022/10/07 08:44:16;;;;;;;26.20;9.95;;;11.90;99.90;;;;;;5106446;28;20044;-68
2022/10/07 08:46:57;;;;;;;45.47;9.88;;;11.90;99.90;;;;;;5108353;28;20050;-68
2022/10/07 08:49:38;;;;;;;55.33;13.68;;;12.00;99.90;;;;;;5106642;28;20516;-68
2022/10/07 08:52:28;;;;;;;41.35;11.80;;;12.10;99.90;;;;;;5107193;28;20110;-67
2022/10/07 08:54:54;;;;;;;31.00;10.10;;;12.20;99.90;;;;;;5090982;28;20130;-67
2022/10/07 08:57:30;;;;;;;32.20;12.15;;;12.30;99.90;;;;;;5095890;28;20043;-67
2022/10/07 09:00:02;;;;;;;36.53;9.77;;;12.50;99.90;;;;;;5104518;28;20047;-68
2022/10/07 09:02:52;;;;;;;25.35;11.10;;;12.70;99.90;;;;;;5110070;28;20047;-68
2022/10/07 09:05:31;;;;;;;29.40;10.23;;;12.90;99.90;;;;;;5107682;28;20378;-68
2022/10/07 09:08:01;;;;;;;27.20;8.80;;;13.10;99.90;;;;;;5108436;28;20042;-68
2022/10/07 09:10:48;;;;;;;24.35;8.63;;;13.30;99.90;;;;;;5099996;28;20040;-68
2022/10/07 09:13:29;;;;;;;41.35;9.43;;;13.50;99.90;;;;;;5099172;28;20047;-68
2022/10/07 09:16:06;;;;;;;24.45;6.82;;;13.70;99.90;;;;;;5106789;28;20493;-68
2022/10/07 09:18:40;;;;;;;22.45;6.57;;;13.90;99.90;;;;;;5093231;28;20040;-69
2022/10/07 09:21:15;;;;;;;23.38;6.60;;;14.20;99.90;;;;;;5103857;28;20119;-69
2022/10/07 09:23:41;;;;;;;28.05;7.43;;;14.40;99.90;;;;;;5102418;28;20043;-69
2022/10/07 09:26:15;;;;;;;32.45;7.03;;;14.70;99.90;;;;;;5110826;28;20047;-69
2022/10/07 09:28:41;;;;;;;41.22;7.15;;;14.90;99.90;;;;;;5102725;28;20118;-69
2022/10/07 09:31:12;;;;;;;27.00;6.18;;;15.00;99.90;;;;;;5108719;28;20119;-70
2022/10/07 09:33:44;;;;;;;31.38;7.55;;;15.10;99.90;;;;;;5110780;28;20540;-70
2022/10/07 09:36:12;;;;;;;20.73;6.82;;;15.30;99.90;;;;;;5109519;28;20044;-70
2022/10/07 09:38:44;;;;;;;23.88;6.40;;;15.50;99.90;;;;;;5105056;28;20551;-70
2022/10/07 09:41:18;;;;;;;28.08;6.70;;;15.60;99.90;;;;;;5105351;28;20040;-70
2022/10/07 09:43:59;;;;;;;20.88;6.60;;;15.70;99.90;;;;;;5093629;28;20036;-70
2022/10/07 09:46:45;;;;;;;28.70;6.15;;;15.80;99.90;;;;;;5110888;28;20730;-70
2022/10/07 09:49:38;;;;;;;35.22;8.70;;;15.90;99.90;;;;;;5097348;28;20408;-70
2022/10/07 09:52:18;;;;;;;25.02;6.60;;;16.00;99.90;;;;;;5097089;28;20058;-71
2022/10/07 09:54:45;;;;;;;23.00;7.22;;;16.10;99.90;;;;;;5103523;28;20152;-71
2022/10/07 09:57:33;;;;;;;23.77;6.05;;;16.10;99.90;;;;;;5107401;28;20044;-71
2022/10/07 10:00:11;;;;;;;19.45;6.45;;;16.40;99.90;;;;;;5106325;28;20039;-71
2022/10/07 10:02:48;;;;;;;25.70;6.35;;;16.30;99.90;;;;;;5102513;28;20101;-71
2022/10/07 10:05:22;;;;;;;44.42;8.80;;;16.20;99.90;;;;;;5098218;28;20044;-71
2022/10/07 10:07:53;;;;;;;23.60;6.97;;;16.30;99.90;;;;;;5093965;28;20127;-72
2022/10/07 10:10:36;;;;;;;40.17;7.68;;;16.40;99.90;;;;;;5099890;27;20126;-71
2022/10/07 10:13:05;;;;;;;20.35;5.78;;;16.60;99.90;;;;;;5106284;28;20043;-72
2022/10/07 10:15:42;;;;;;;35.58;8.65;;;16.70;99.90;;;;;;5096504;27;20056;-72
2022/10/07 10:18:29;;;;;;;53.80;8.55;;;17.00;99.90;;;;;;5104823;28;20129;-72
2022/10/07 10:20:56;;;;;;;23.95;6.28;;;17.00;99.90;;;;;;5101868;28;20082;-72
2022/10/07 10:23:27;;;;;;;35.72;6.85;;;17.20;99.90;;;;;;5108690;28;20063;-72
2022/10/07 10:26:26;;;;;;;39.47;6.82;;;17.30;99.90;;;;;;5096966;28;20063;-72
2022/10/07 10:29:13;;;;;;;23.65;7.70;;;17.40;99.90;;;;;;5098766;28;20077;-72
2022/10/07 10:31:57;;;;;;;27.38;6.90;;;17.60;99.90;;;;;;5092382;28;20055;-72
2022/10/07 10:34:37;;;;;;;20.52;7.00;;;17.70;99.90;;;;;;5095454;28;20126;-72
2022/10/07 10:37:28;;;;;;;18.38;5.85;;;17.90;99.90;;;;;;5093423;27;20100;-72
2022/10/07 10:40:31;;;;;;;18.40;6.72;;;18.10;99.90;;;;;;5091346;28;20052;-72
2022/10/07 10:43:21;;;;;;;20.33;5.53;;;18.10;99.90;;;;;;5095863;28;20392;-72
2022/10/07 10:46:07;;;;;;;23.40;5.00;;;18.10;99.90;;;;;;5105443;28;20130;-72
2022/10/07 10:48:36;;;;;;;20.13;5.95;;;18.10;99.90;;;;;;5088761;28;20131;-72
2022/10/07 10:51:32;;;;;;;29.38;6.85;;;18.10;99.90;;;;;;5089625;28;20051;-72
2022/10/07 10:54:16;;;;;;;35.17;6.35;;;18.20;99.90;;;;;;5098073;28;20051;-72
2022/10/07 10:57:11;;;;;;;15.57;5.63;;;18.20;99.90;;;;;;5091218;28;20036;-72
2022/10/07 10:59:47;;;;;;;18.92;5.38;;;18.50;99.90;;;;;;5101430;28;20132;-71
2022/10/07 11:02:32;;;;;;;13.77;4.80;;;18.60;99.90;;;;;;5106010;28;20069;-72
2022/10/07 11:05:05;;;;;;;16.92;5.65;;;18.70;99.90;;;;;;5105282;28;20058;-72
2022/10/07 11:07:46;;;;;;;24.42;6.68;;;18.90;99.90;;;;;;5101274;28;20511;-72
2022/10/07 11:10:28;;;;;;;18.45;5.30;;;18.90;99.90;;;;;;5101557;28;20057;-72
2022/10/07 11:12:57;;;;;;;13.27;5.45;;;18.90;99.90;;;;;;5098666;28;20408;-72
2022/10/07 11:15:29;;;;;;;22.30;6.95;;;18.90;99.90;;;;;;5104361;28;20127;-72
2022/10/07 11:18:03;;;;;;;14.25;5.30;;;18.90;99.90;;;;;;5107466;28;20043;-72
2022/10/07 11:20:35;;;;;;;28.38;6.32;;;18.90;99.90;;;;;;5104501;28;20059;-72
2022/10/07 11:23:25;;;;;;;28.27;5.95;;;18.90;99.90;;;;;;5121494;27;20043;-71
2022/10/07 11:26:09;;;;;;;28.15;5.32;;;18.80;99.90;;;;;;5104100;28;20109;-71
2022/10/07 11:28:38;;;;;;;16.88;5.95;;;18.80;99.90;;;;;;5102024;28;20047;-71
2022/10/07 11:31:09;;;;;;;25.00;6.43;;;18.90;99.90;;;;;;5109321;28;20389;-71
2022/10/07 11:33:54;;;;;;;21.65;5.72;;;18.90;99.90;;;;;;5100026;28;20044;-71
2022/10/07 11:37:05;;;;;;;25.48;6.10;;;18.90;99.90;;;;;;5106962;28;20046;-72
2022/10/07 11:39:35;;;;;;;21.92;6.82;;;18.90;99.90;;;;;;5107911;28;20102;-71
2022/10/07 11:42:14;;;;;;;15.48;5.40;;;18.70;99.90;;;;;;5107057;28;20053;-72
2022/10/07 11:44:54;;;;;;;20.80;6.38;;;18.70;99.90;;;;;;5094516;28;20123;-71
2022/10/07 11:47:25;;;;;;;18.77;6.32;;;18.70;99.90;;;;;;5099696;28;20055;-71
2022/10/07 11:50:06;;;;;;;17.17;5.82;;;18.80;99.90;;;;;;5100334;28;20054;-71
2022/10/07 11:52:37;;;;;;;23.77;5.35;;;18.80;99.90;;;;;;5104271;28;20048;-72
2022/10/07 11:55:06;;;;;;;30.15;6.00;;;18.90;99.90;;;;;;5099754;28;20043;-71
2022/10/07 11:57:36;;;;;;;40.75;7.30;;;18.90;99.90;;;;;;5096505;28;20539;-72
2022/10/07 12:00:20;;;;;;;22.40;6.18;;;19.00;99.90;;;;;;5102745;28;20088;-71
2022/10/07 12:02:47;;;;;;;17.08;6.22;;;19.00;99.90;;;;;;5096210;28;20419;-71
2022/10/07 12:05:34;;;;;;;29.43;7.73;;;19.10;99.90;;;;;;5094441;28;20075;-72
2022/10/07 12:08:24;;;;;;;14.18;4.90;;;19.10;99.90;;;;;;5097115;28;20058;-71
2022/10/07 12:11:13;;;;;;;18.77;6.85;;;19.20;99.90;;;;;;5090967;28;20066;-72
2022/10/07 12:13:45;;;;;;;22.60;6.63;;;19.20;99.90;;;;;;5102722;28;21253;-71
2022/10/07 12:16:23;;;;;;;36.28;7.28;;;19.20;99.90;;;;;;5102041;28;20049;-71
2022/10/07 12:19:11;;;;;;;24.95;6.35;;;19.30;99.90;;;;;;5081478;28;20085;-71
2022/10/07 12:22:04;;;;;;;23.95;7.45;;;19.20;99.90;;;;;;5095650;28;20090;-72
2022/10/07 12:24:33;;;;;;;29.73;6.80;;;19.30;99.90;;;;;;5093567;28;20079;-72
2022/10/07 12:27:23;;;;;;;30.83;7.22;;;19.10;99.90;;;;;;5086111;28;20111;-72
2022/10/07 12:29:57;;;;;;;29.23;6.70;;;19.10;99.90;;;;;;5102324;28;20083;-73
2022/10/07 12:32:55;;;;;;;19.17;5.63;;;18.90;99.90;;;;;;5105534;28;20067;-72
2022/10/07 12:35:44;;;;;;;16.63;5.97;;;18.90;99.90;;;;;;5098216;28;20044;-72
2022/10/07 12:38:22;;;;;;;26.30;6.47;;;18.90;99.90;;;;;;5107765;28;20044;-72
2022/10/07 12:41:03;;;;;;;22.33;5.32;;;18.70;99.90;;;;;;5093117;28;20472;-72
2022/10/07 12:43:46;;;;;;;16.15;4.72;;;18.70;99.90;;;;;;5094632;28;20054;-70
2022/10/07 12:46:15;;;;;;;24.83;6.45;;;18.50;99.90;;;;;;5105942;28;20043;-70
2022/10/07 12:48:46;;;;;;;20.55;6.20;;;18.40;99.90;;;;;;5109056;28;20062;-70
2022/10/07 12:51:18;;;;;;;25.33;8.95;;;18.30;99.90;;;;;;5104953;28;20144;-71
2022/10/07 12:53:46;;;;;;;27.15;6.68;;;18.30;99.90;;;;;;5107693;28;20047;-70
2022/10/07 12:56:26;;;;;;;31.23;7.55;;;18.70;99.90;;;;;;5096133;28;20050;-70
2022/10/07 13:02:14;;;;;;;33.75;6.25;;;18.30;99.90;;;;;;5089106;28;20055;-70
2022/10/07 13:04:49;;;;;;;16.63;4.95;;;18.40;99.90;;;;;;5090489;28;20084;-70
2022/10/07 13:07:27;;;;;;;16.02;6.15;;;18.30;99.90;;;;;;5108831;28;20058;-70
2022/10/07 13:10:07;;;;;;;;;;;18.40;99.90;;;;;;5097998;28;20557;-70
2022/10/07 13:12:42;;;;;;;18.83;6.22;;;18.20;99.90;;;;;;5093361;28;19924;-70
2022/10/07 13:15:28;;;;;;;26.48;5.43;;;18.20;99.90;;;;;;5105204;28;20058;-70